PWSweather.com
Personal Weather Stations
Station Observations
79674
AfterstegDE 79674

AfterstegDE 79674

Lat: 47.84344, Lon: 7.92844

Elevation: 809

Station Type: Davis Vantage 2 Aktive

Latest ConditionsUpdated 6:52:24 AM GMT+01:01 Thursday, Dec 8, 2016
Currently Today's Max Today's Min Today's Average
Temperature 37.6°F3.1°C 38.8°F3.8°C 36.7°F2.6°C 37.8°F3.2°C
Dew Point 18.7°F-7.4°C 19.4°F-7.0°C 10.0°F-12.2°C 13.3°F-10.4°C
Winds Calm Calm 0.9 mph ESE1.4 kmh ESE - 0.0 mph 0.0 kmh
Wind Gusts -- 2.0 mph3.2 kmh - -
Humidity 46% 47% 31% 36%
Pressure 30.60 in1036.2 mb 30.60 in1036.2 mb 30.57 in1035.2 mb -
Hour Temp Dew Point Humidity Winds Wind Gusts Pressure Precip Precip Rate Daily Precip Total
06:52 AM 37.6°F3.1°C 18.7°F-7.4°C 46% Calm Calm -- 30.60 in1036.2 mb - 0.00 in0.0 mm 0.00 in0.0 mm
06:47 AM 37.9°F3.3°C 18.5°F-7.5°C 45% Calm Calm -- 30.60 in1036.2 mb - 0.00 in0.0 mm 0.00 in0.0 mm
06:42 AM 37.8°F3.2°C 18.3°F-7.6°C 45% Calm Calm -- 30.60 in1036.2 mb - 0.00 in0.0 mm 0.00 in0.0 mm
06:37 AM 37.6°F3.1°C 18.7°F-7.4°C 46% Calm Calm -- 30.60 in1036.2 mb - 0.00 in0.0 mm 0.00 in0.0 mm
06:32 AM 37.6°F3.1°C 19.2°F-7.1°C 47% Calm Calm -- 30.60 in1036.2 mb - 0.00 in0.0 mm 0.00 in0.0 mm
06:27 AM 37.8°F3.2°C 19.4°F-7.0°C 47% Calm Calm -- 30.60 in1036.2 mb - 0.00 in0.0 mm 0.00 in0.0 mm
06:22 AM 37.8°F3.2°C 19.4°F-7.0°C 47% Calm Calm -- 30.60 in1036.2 mb - 0.00 in0.0 mm 0.00 in0.0 mm
06:17 AM 38.1°F3.4°C 19.2°F-7.1°C 46% Calm Calm -- 30.60 in1036.2 mb - 0.00 in0.0 mm 0.00 in0.0 mm
06:12 AM 38.3°F3.5°C 18.3°F-7.6°C 44% Calm Calm -- 30.60 in1036.2 mb - 0.00 in0.0 mm 0.00 in0.0 mm
06:07 AM 37.9°F3.3°C 18.0°F-7.8°C 44% Calm Calm -- 30.60 in1036.2 mb - 0.00 in0.0 mm 0.00 in0.0 mm
06:02 AM 38.5°F3.6°C 16.9°F-8.4°C 41% Calm Calm -- 30.60 in1036.2 mb - 0.00 in0.0 mm 0.00 in0.0 mm
05:57 AM 38.3°F3.5°C 16.7°F-8.5°C 41% Calm Calm -- 30.60 in1036.2 mb - 0.00 in0.0 mm 0.00 in0.0 mm
05:52 AM 38.1°F3.4°C 17.6°F-8.0°C 43% Calm Calm -- 30.60 in1036.2 mb - 0.00 in0.0 mm 0.00 in0.0 mm
05:47 AM 37.9°F3.3°C 18.0°F-7.8°C 44% Calm Calm -- 30.60 in1036.2 mb - 0.00 in0.0 mm 0.00 in0.0 mm
05:42 AM 37.8°F3.2°C 16.7°F-8.5°C 42% Calm Calm -- 30.60 in1036.2 mb - 0.00 in0.0 mm 0.00 in0.0 mm
05:37 AM 37.6°F3.1°C 17.1°F-8.3°C 43% Calm Calm -- 30.60 in1036.2 mb - 0.00 in0.0 mm 0.00 in0.0 mm
05:32 AM 37.4°F3.0°C 16.9°F-8.4°C 43% Calm Calm -- 30.60 in1036.2 mb - 0.00 in0.0 mm 0.00 in0.0 mm
05:27 AM 37.8°F3.2°C 16.7°F-8.5°C 42% Calm Calm -- 30.59 in1035.9 mb - 0.00 in0.0 mm 0.00 in0.0 mm
05:22 AM 37.8°F3.2°C 16.7°F-8.5°C 42% Calm Calm -- 30.59 in1035.9 mb - 0.00 in0.0 mm 0.00 in0.0 mm
05:17 AM 37.6°F3.1°C 15.4°F-9.2°C 40% Calm Calm -- 30.59 in1035.9 mb - 0.00 in0.0 mm 0.00 in0.0 mm
05:12 AM 37.6°F3.1°C 14.2°F-9.9°C 38% Calm Calm -- 30.59 in1035.9 mb - 0.00 in0.0 mm 0.00 in0.0 mm
05:07 AM 37.6°F3.1°C 14.2°F-9.9°C 38% Calm Calm -- 30.59 in1035.9 mb - 0.00 in0.0 mm 0.00 in0.0 mm
05:02 AM 38.5°F3.6°C 14.5°F-9.7°C 37% Calm Calm 0.9 mph1.4 kmh 30.59 in1035.9 mb - 0.00 in0.0 mm 0.00 in0.0 mm
04:57 AM 38.1°F3.4°C 14.2°F-9.9°C 37% Calm Calm -- 30.59 in1035.9 mb - 0.00 in0.0 mm 0.00 in0.0 mm
04:52 AM 37.9°F3.3°C 13.3°F-10.4°C 36% Calm Calm -- 30.59 in1035.9 mb - 0.00 in0.0 mm 0.00 in0.0 mm
04:47 AM 38.1°F3.4°C 13.5°F-10.3°C 36% Calm Calm -- 30.59 in1035.9 mb - 0.00 in0.0 mm 0.00 in0.0 mm
04:42 AM 38.5°F3.6°C 12.6°F-10.8°C 34% Calm Calm -- 30.59 in1035.9 mb - 0.00 in0.0 mm 0.00 in0.0 mm
04:37 AM 38.3°F3.5°C 12.4°F-10.9°C 34% Calm Calm -- 30.59 in1035.9 mb - 0.00 in0.0 mm 0.00 in0.0 mm
04:32 AM 38.7°F3.7°C 12.7°F-10.7°C 34% Calm Calm -- 30.59 in1035.9 mb - 0.00 in0.0 mm 0.00 in0.0 mm
04:27 AM 38.5°F3.6°C 11.1°F-11.6°C 32% Calm Calm -- 30.59 in1035.9 mb - 0.00 in0.0 mm 0.00 in0.0 mm
04:22 AM 38.8°F3.8°C 12.2°F-11.0°C 33% Calm Calm -- 30.59 in1035.9 mb - 0.00 in0.0 mm 0.00 in0.0 mm
04:17 AM 38.5°F3.6°C 11.8°F-11.2°C 33% Calm Calm -- 30.59 in1035.9 mb - 0.00 in0.0 mm 0.00 in0.0 mm
04:12 AM 38.1°F3.4°C 11.5°F-11.4°C 33% Calm Calm -- 30.59 in1035.9 mb - 0.00 in0.0 mm 0.00 in0.0 mm
04:07 AM 37.8°F3.2°C 13.8°F-10.1°C 37% Calm Calm -- 30.59 in1035.9 mb - 0.00 in0.0 mm 0.00 in0.0 mm
04:02 AM 37.9°F3.3°C 12.7°F-10.7°C 35% Calm Calm -- 30.59 in1035.9 mb - 0.00 in0.0 mm 0.00 in0.0 mm
03:57 AM 37.8°F3.2°C 11.8°F-11.2°C 34% Calm Calm -- 30.59 in1035.9 mb - 0.00 in0.0 mm 0.00 in0.0 mm
03:52 AM 37.4°F3.0°C 12.9°F-10.6°C 36% Calm Calm -- 30.59 in1035.9 mb - 0.00 in0.0 mm 0.00 in0.0 mm
03:47 AM 37.6°F3.1°C 12.4°F-10.9°C 35% Calm Calm -- 30.59 in1035.9 mb - 0.00 in0.0 mm 0.00 in0.0 mm
03:42 AM 37.8°F3.2°C 12.6°F-10.8°C 35% Calm Calm -- 30.59 in1035.9 mb - 0.00 in0.0 mm 0.00 in0.0 mm
03:37 AM 37.6°F3.1°C 11.7°F-11.3°C 34% Calm Calm -- 30.59 in1035.9 mb - 0.00 in0.0 mm 0.00 in0.0 mm
03:32 AM 37.6°F3.1°C 11.1°F-11.6°C 33% Calm Calm -- 30.59 in1035.9 mb - 0.00 in0.0 mm 0.00 in0.0 mm
03:27 AM 37.6°F3.1°C 12.4°F-10.9°C 35% Calm Calm -- 30.59 in1035.9 mb - 0.00 in0.0 mm 0.00 in0.0 mm
03:22 AM 37.8°F3.2°C 11.8°F-11.2°C 34% Calm Calm -- 30.59 in1035.9 mb - 0.00 in0.0 mm 0.00 in0.0 mm
03:17 AM 38.1°F3.4°C 12.9°F-10.6°C 35% Calm Calm -- 30.59 in1035.9 mb - 0.00 in0.0 mm 0.00 in0.0 mm
03:12 AM 38.1°F3.4°C 12.9°F-10.6°C 35% Calm Calm -- 30.59 in1035.9 mb - 0.00 in0.0 mm 0.00 in0.0 mm
03:07 AM 37.6°F3.1°C 11.1°F-11.6°C 33% Calm Calm -- 30.59 in1035.9 mb - 0.00 in0.0 mm 0.00 in0.0 mm
03:02 AM 37.6°F3.1°C 12.4°F-10.9°C 35% Calm Calm -- 30.59 in1035.9 mb - 0.00 in0.0 mm 0.00 in0.0 mm
02:57 AM 37.8°F3.2°C 10.6°F-11.9°C 32% Calm Calm -- 30.59 in1035.9 mb - 0.00 in0.0 mm 0.00 in0.0 mm
02:52 AM 37.8°F3.2°C 11.3°F-11.5°C 33% Calm Calm -- 30.59 in1035.9 mb - 0.00 in0.0 mm 0.00 in0.0 mm
02:47 AM 37.8°F3.2°C 11.3°F-11.5°C 33% Calm Calm -- 30.59 in1035.9 mb - 0.00 in0.0 mm 0.00 in0.0 mm
02:42 AM 37.8°F3.2°C 10.6°F-11.9°C 32% Calm Calm -- 30.59 in1035.9 mb - 0.00 in0.0 mm 0.00 in0.0 mm
02:37 AM 37.6°F3.1°C 13.1°F-10.5°C 36% Calm Calm -- 30.59 in1035.9 mb - 0.00 in0.0 mm 0.00 in0.0 mm
02:32 AM 37.9°F3.3°C 10.0°F-12.2°C 31% Calm Calm -- 30.59 in1035.9 mb - 0.00 in0.0 mm 0.00 in0.0 mm
02:27 AM 37.6°F3.1°C 11.1°F-11.6°C 33% Calm Calm -- 30.58 in1035.6 mb - 0.00 in0.0 mm 0.00 in0.0 mm
02:22 AM 37.4°F3.0°C 10.9°F-11.7°C 33% Calm Calm -- 30.58 in1035.6 mb - 0.00 in0.0 mm 0.00 in0.0 mm
02:17 AM 37.0°F2.8°C 11.8°F-11.2°C 35% Calm Calm -- 30.58 in1035.6 mb - 0.00 in0.0 mm 0.00 in0.0 mm
02:12 AM 37.0°F2.8°C 11.3°F-11.5°C 34% Calm Calm -- 30.58 in1035.6 mb - 0.00 in0.0 mm 0.00 in0.0 mm
02:07 AM 36.7°F2.6°C 11.7°F-11.3°C 35% Calm Calm -- 30.59 in1035.9 mb - 0.00 in0.0 mm 0.00 in0.0 mm
02:02 AM 36.9°F2.7°C 12.4°F-10.9°C 36% 0.9 mph E1.4 kmh E -- 30.58 in1035.6 mb - 0.00 in0.0 mm 0.00 in0.0 mm
01:57 AM 37.4°F3.0°C 11.7°F-11.3°C 34% 0.9 mph ESE1.4 kmh ESE -- 30.58 in1035.6 mb - 0.00 in0.0 mm 0.00 in0.0 mm
01:52 AM 37.8°F3.2°C 11.3°F-11.5°C 33% 0.9 mph ESE1.4 kmh ESE 2.0 mph3.2 kmh 30.58 in1035.6 mb - 0.00 in0.0 mm 0.00 in0.0 mm
01:47 AM 37.8°F3.2°C 10.6°F-11.9°C 32% Calm Calm 2.0 mph3.2 kmh 30.58 in1035.6 mb - 0.00 in0.0 mm 0.00 in0.0 mm
01:42 AM 37.4°F3.0°C 11.7°F-11.3°C 34% Calm Calm -- 30.58 in1035.6 mb - 0.00 in0.0 mm 0.00 in0.0 mm
01:37 AM 37.4°F3.0°C 11.7°F-11.3°C 34% Calm Calm -- 30.58 in1035.6 mb - 0.00 in0.0 mm 0.00 in0.0 mm
01:32 AM 37.9°F3.3°C 11.3°F-11.5°C 33% Calm Calm -- 30.57 in1035.2 mb - 0.00 in0.0 mm 0.00 in0.0 mm
01:27 AM 37.9°F3.3°C 10.0°F-12.2°C 31% Calm Calm -- 30.58 in1035.6 mb - 0.00 in0.0 mm 0.00 in0.0 mm
01:22 AM 37.4°F3.0°C 10.2°F-12.1°C 32% Calm Calm -- 30.58 in1035.6 mb - 0.00 in0.0 mm 0.00 in0.0 mm
01:17 AM 37.2°F2.9°C 10.8°F-11.8°C 33% Calm Calm -- 30.58 in1035.6 mb - 0.00 in0.0 mm 0.00 in0.0 mm
01:12 AM 37.8°F3.2°C 11.8°F-11.2°C 34% Calm Calm -- 30.58 in1035.6 mb - 0.00 in0.0 mm 0.00 in0.0 mm
01:07 AM 37.8°F3.2°C 10.6°F-11.9°C 32% Calm Calm -- 30.58 in1035.6 mb - 0.00 in0.0 mm 0.00 in0.0 mm
01:02 AM 37.2°F2.9°C 11.5°F-11.4°C 34% Calm Calm -- 30.58 in1035.6 mb - 0.00 in0.0 mm 0.00 in0.0 mm
12:57 AM 37.2°F2.9°C 11.5°F-11.4°C 34% Calm Calm -- 30.58 in1035.6 mb - 0.00 in0.0 mm 0.00 in0.0 mm
12:52 AM 37.9°F3.3°C 10.8°F-11.8°C 32% Calm Calm -- 30.58 in1035.6 mb - 0.00 in0.0 mm 0.00 in0.0 mm
12:47 AM 37.6°F3.1°C 11.1°F-11.6°C 33% Calm Calm -- 30.58 in1035.6 mb - 0.00 in0.0 mm 0.00 in0.0 mm
12:42 AM 37.2°F2.9°C 12.0°F-11.1°C 35% Calm Calm -- 30.59 in1035.9 mb - 0.00 in0.0 mm 0.00 in0.0 mm
12:37 AM 37.6°F3.1°C 11.7°F-11.3°C 34% Calm Calm -- 30.59 in1035.9 mb - 0.00 in0.0 mm 0.00 in0.0 mm
12:32 AM 37.6°F3.1°C 11.7°F-11.3°C 34% Calm Calm -- 30.59 in1035.9 mb - 0.00 in0.0 mm 0.00 in0.0 mm
12:27 AM 37.6°F3.1°C 11.1°F-11.6°C 33% Calm Calm -- 30.59 in1035.9 mb - 0.00 in0.0 mm 0.00 in0.0 mm
12:22 AM 37.6°F3.1°C 10.4°F-12.0°C 32% Calm Calm -- 30.59 in1035.9 mb - 0.00 in0.0 mm 0.00 in0.0 mm
12:17 AM 37.4°F3.0°C 11.7°F-11.3°C 34% Calm Calm -- 30.59 in1035.9 mb - 0.00 in0.0 mm 0.00 in0.0 mm
12:12 AM 37.4°F3.0°C 11.7°F-11.3°C 34% Calm Calm -- 30.59 in1035.9 mb - 0.00 in0.0 mm 0.00 in0.0 mm
12:07 AM 37.8°F3.2°C 11.8°F-11.2°C 34% Calm Calm -- 30.59 in1035.9 mb - 0.00 in0.0 mm 0.00 in0.0 mm
12:02 AM 37.8°F3.2°C 12.6°F-10.8°C 35% Calm Calm -- 30.59 in1035.9 mb - 0.00 in0.0 mm 0.00 in0.0 mm